< Typhoon 197317 1973 Season Typhoon 197319 >
Typhoon 197318 (RUTH)
General InformationTrack Information on Google Maps || Disaster Info.ResourceGoogle EarthGE AnimationAtom FeedGeoJSON
Detalied Best Track (Time Zone = UTC)
Year Month Day Hour Lat. Long. Pressure (hPa) Wind (kt) Class Image Chart
1973 10 11 00 11.5 144.1 1004 0 2 -- Chart
1973 10 11 06 12.0 142.6 1002 0 2 -- Chart
1973 10 11 12 12.4 141.0 1000 0 9 -- Chart
1973 10 11 18 12.7 139.5 1000 0 9 -- Chart
1973 10 12 00 13.2 137.9 998 0 9 -- Chart
1973 10 12 06 13.3 136.3 996 0 9 -- Chart
1973 10 12 12 13.5 135.0 996 0 9 -- Chart
1973 10 12 18 13.5 133.8 992 0 9 -- Chart
1973 10 13 00 13.0 132.8 980 0 9 -- Chart
1973 10 13 06 12.6 131.6 980 0 9 -- Chart
1973 10 13 12 13.1 130.8 980 0 9 -- Chart
1973 10 13 18 13.5 129.7 980 0 9 -- Chart
1973 10 14 00 14.1 128.5 980 0 9 -- Chart
1973 10 14 06 14.2 127.3 980 0 9 -- Chart
1973 10 14 12 14.3 126.4 980 0 9 -- Chart
1973 10 14 18 14.0 125.4 980 0 9 -- Chart
1973 10 15 00 14.7 124.6 975 0 9 -- Chart
1973 10 15 06 15.0 123.7 965 0 9 -- Chart
1973 10 15 12 15.5 121.9 965 0 9 -- Chart
1973 10 15 18 15.8 120.4 975 0 9 -- Chart
1973 10 16 00 15.8 119.0 980 0 9 -- Chart
1973 10 16 06 16.3 117.9 980 0 9 -- Chart
1973 10 16 12 16.5 117.0 975 0 9 -- Chart
1973 10 16 18 16.6 115.7 970 0 9 -- Chart
1973 10 17 00 16.8 114.5 965 0 9 -- Chart
1973 10 17 06 16.7 113.4 960 0 9 -- Chart
1973 10 17 12 16.7 112.4 960 0 9 -- Chart
1973 10 17 18 16.8 111.5 960 0 9 -- Chart
1973 10 18 00 17.3 110.9 960 0 9 -- Chart
1973 10 18 06 17.8 110.3 960 0 9 -- Chart
1973 10 18 12 18.3 109.8 975 0 9 -- Chart
1973 10 18 18 18.9 109.1 980 0 9 -- Chart
1973 10 19 00 19.7 108.5 985 0 9 -- Chart
1973 10 19 06 20.7 107.7 985 0 9 -- Chart
1973 10 19 12 21.8 107.5 990 0 9 -- Chart
1973 10 19 18 23.0 107.1 996 0 2 -- Chart
Japan Meteorological Agency Best Track Data | Correction Date : 1989-06-01
< Typhoon 197317 1973 Season Typhoon 197319 >

Help